createdAt,value
2019-04-22T00:00:36.497Z,3.00
2019-04-22T00:03:07.448Z,2.93
2019-04-22T00:05:58.894Z,2.50
2019-04-22T00:08:36.134Z,2.97
2019-04-22T00:11:14.697Z,2.87
2019-04-22T00:13:46.808Z,2.70
2019-04-22T00:16:07.161Z,2.90
2019-04-22T00:19:01.778Z,3.00
2019-04-22T00:21:19.876Z,2.63
2019-04-22T00:23:54.874Z,3.43
2019-04-22T00:26:23.942Z,2.70
2019-04-22T00:28:59.314Z,2.60
2019-04-22T00:31:43.070Z,2.83
2019-04-22T00:34:17.833Z,2.77
2019-04-22T00:36:52.556Z,3.00
2019-04-22T00:39:28.387Z,3.10
2019-04-22T00:41:56.980Z,2.97
2019-04-22T00:44:33.284Z,3.00
2019-04-22T00:47:04.055Z,2.97
2019-04-22T00:54:43.863Z,2.83
2019-04-22T00:57:12.283Z,2.80
2019-04-22T00:59:45.618Z,2.50
2019-04-22T01:02:18.537Z,2.90
2019-04-22T01:04:46.417Z,2.73
2019-04-22T01:07:17.626Z,2.40
2019-04-22T01:09:52.136Z,2.53
2019-04-22T01:12:26.528Z,2.60
2019-04-22T01:14:53.795Z,3.00
2019-04-22T01:17:27.671Z,3.00
2019-04-22T01:20:04.976Z,2.80
2019-04-22T01:22:28.295Z,2.63
2019-04-22T01:25:02.490Z,3.37
2019-04-22T01:27:30.978Z,2.80
2019-04-22T01:30:00.979Z,3.07
2019-04-22T01:32:28.711Z,3.23
2019-04-22T01:35:11.111Z,3.07
2019-04-22T01:37:48.459Z,3.73
2019-04-22T01:40:32.449Z,3.10
2019-04-22T01:43:19.926Z,3.13
2019-04-22T01:45:48.304Z,2.80
2019-04-22T01:48:17.992Z,3.00
2019-04-22T01:50:49.658Z,3.57
2019-04-22T01:53:20.471Z,3.13
2019-04-22T01:56:02.115Z,2.70
2019-04-22T01:58:24.874Z,2.70
2019-04-22T02:01:00.234Z,2.87
2019-04-22T02:03:33.263Z,3.20
2019-04-22T02:06:07.220Z,2.67
2019-04-22T02:08:44.685Z,2.80
2019-04-22T02:11:17.677Z,3.10
2019-04-22T02:13:47.887Z,2.97
2019-04-22T02:16:14.516Z,3.30
2019-04-22T02:18:45.175Z,2.73
2019-04-22T02:21:16.987Z,2.97
2019-04-22T02:23:54.012Z,2.47
2019-04-22T02:26:25.780Z,2.80
2019-04-22T02:28:55.218Z,2.40
2019-04-22T02:31:38.123Z,2.97
2019-04-22T02:34:13.688Z,2.43
2019-04-22T02:44:14.075Z,2.77
2019-04-22T02:49:25.492Z,3.53
2019-04-22T02:51:47.034Z,3.40
2019-04-22T02:56:44.897Z,2.93
2019-04-22T02:59:25.931Z,2.93
2019-04-22T03:01:54.138Z,2.70
2019-04-22T03:04:24.655Z,2.77
2019-04-22T03:06:46.165Z,3.33
2019-04-22T03:09:40.740Z,3.10
2019-04-22T03:14:45.633Z,2.60
2019-04-22T03:17:20.496Z,2.60
2019-04-22T03:25:05.582Z,3.20
2019-04-22T03:27:34.774Z,3.33
2019-04-22T03:40:30.710Z,2.80
2019-04-22T03:45:32.216Z,2.60
2019-04-22T03:53:09.398Z,2.50
2019-04-22T03:55:38.302Z,3.00
2019-04-22T03:58:21.090Z,3.17
2019-04-22T04:03:12.086Z,2.87
2019-04-22T04:08:26.738Z,2.90
2019-04-22T04:10:55.662Z,2.83
2019-04-22T04:13:28.582Z,2.77
2019-04-22T04:16:12.552Z,3.00
2019-04-22T04:18:30.830Z,2.80
2019-04-22T04:21:12.691Z,2.90
2019-04-22T04:24:01.383Z,3.13
2019-04-22T04:31:22.444Z,3.47
2019-04-22T04:36:27.048Z,2.60
2019-04-22T04:41:25.967Z,3.10
2019-04-22T04:44:15.202Z,3.03
2019-04-22T04:46:37.623Z,3.00
2019-04-22T04:54:15.136Z,3.97
2019-04-22T04:56:37.889Z,3.10
2019-04-22T04:59:16.925Z,2.90
2019-04-22T05:06:52.099Z,3.53
2019-04-22T05:11:58.775Z,3.20
2019-04-22T05:14:23.252Z,3.10
2019-04-22T05:16:57.185Z,3.90
2019-04-22T05:19:20.265Z,4.20
2019-04-22T05:27:17.731Z,3.83
2019-04-22T05:29:46.424Z,3.70
2019-04-22T05:32:09.356Z,3.53
2019-04-22T05:34:40.223Z,5.57
2019-04-22T05:37:18.661Z,4.00
2019-04-22T05:39:51.150Z,4.17
2019-04-22T05:42:34.531Z,3.77
2019-04-22T05:45:00.783Z,3.37
2019-04-22T05:47:26.194Z,3.90
2019-04-22T05:50:02.287Z,3.80
2019-04-22T05:55:14.431Z,4.00
2019-04-22T05:57:48.940Z,3.50
2019-04-22T06:00:25.795Z,3.77
2019-04-22T06:19:38.587Z,3.37
2019-04-22T06:29:26.666Z,3.70
2019-04-22T06:34:48.508Z,3.67
2019-04-22T06:37:42.012Z,3.60
2019-04-22T06:40:07.257Z,3.55
2019-04-22T06:45:26.374Z,3.95
2019-04-22T06:50:30.293Z,4.10
2019-04-22T06:53:06.788Z,3.77
2019-04-22T06:55:35.605Z,3.80
2019-04-22T06:58:04.952Z,4.20
2019-04-22T07:00:42.946Z,3.85
2019-04-22T07:06:24.079Z,4.45
2019-04-22T07:11:04.826Z,4.05
2019-04-22T07:13:42.929Z,3.50
2019-04-22T07:16:20.302Z,4.25
2019-04-22T07:19:01.825Z,4.03
2019-04-22T07:21:23.534Z,4.03
2019-04-22T07:24:02.627Z,4.40
2019-04-22T07:26:21.894Z,4.22
2019-04-22T07:28:58.213Z,4.50
2019-04-22T07:31:27.261Z,4.15
2019-04-22T07:34:13.616Z,3.55
2019-04-22T07:39:10.934Z,3.85
2019-04-22T07:42:36.549Z,4.22
2019-04-22T07:49:23.701Z,4.30
2019-04-22T07:55:27.241Z,4.35
2019-04-22T07:58:25.744Z,4.35
2019-04-22T08:21:52.144Z,3.92
2019-04-22T08:24:37.514Z,4.47
2019-04-22T08:27:08.680Z,4.60
2019-04-22T08:30:02.103Z,3.92
2019-04-22T08:32:19.925Z,4.25
2019-04-22T08:34:47.599Z,4.90
2019-04-22T08:37:47.918Z,4.25
2019-04-22T08:40:01.637Z,4.50
2019-04-22T08:42:35.187Z,5.30
2019-04-22T08:47:36.112Z,4.10
2019-04-22T08:50:10.361Z,4.40
2019-04-22T08:52:42.072Z,4.40
2019-04-22T09:17:40.161Z,4.35
2019-04-22T09:20:49.003Z,4.50
2019-04-22T09:23:24.695Z,4.50
2019-04-22T09:34:06.790Z,4.05
2019-04-22T09:36:45.840Z,4.12
2019-04-22T09:39:18.527Z,3.62
2019-04-22T09:42:03.017Z,4.12
2019-04-22T09:44:26.251Z,3.77
2019-04-22T09:46:51.942Z,4.33
2019-04-22T09:52:05.783Z,3.67
2019-04-22T09:54:57.579Z,4.10
2019-04-22T09:57:44.963Z,3.92
2019-04-22T10:03:29.692Z,3.92
2019-04-22T10:06:21.386Z,4.03
2019-04-22T10:08:41.003Z,3.80
2019-04-22T10:11:18.285Z,3.80
2019-04-22T10:13:49.376Z,3.75
2019-04-22T10:16:20.194Z,3.98
2019-04-22T10:21:54.569Z,3.67
2019-04-22T10:24:31.941Z,3.85
2019-04-22T10:26:59.918Z,3.67
2019-04-22T10:29:36.526Z,3.70
2019-04-22T10:32:07.048Z,3.90
2019-04-22T10:35:41.351Z,3.40
2019-04-22T10:38:22.192Z,3.40
2019-04-22T10:40:56.373Z,3.98
2019-04-22T10:43:31.114Z,3.77
2019-04-22T10:46:02.414Z,3.45
2019-04-22T10:48:34.628Z,3.65
2019-04-22T10:51:06.881Z,3.60
2019-04-22T10:53:44.212Z,3.95
2019-04-22T10:56:16.948Z,4.10
2019-04-22T11:01:48.613Z,3.40
2019-04-22T11:05:46.135Z,3.17
2019-04-22T11:09:07.059Z,3.40
2019-04-22T11:29:29.902Z,3.10
2019-04-22T11:32:20.245Z,3.05
2019-04-22T11:34:51.752Z,3.40
2019-04-22T11:37:22.879Z,3.02
2019-04-22T11:40:02.122Z,3.10
2019-04-22T11:42:28.117Z,3.22
2019-04-22T11:44:59.407Z,3.25
2019-04-22T11:47:31.178Z,3.33
2019-04-22T11:50:02.263Z,3.20
2019-04-22T11:52:34.977Z,2.95
2019-04-22T11:55:08.675Z,2.85
2019-04-22T11:57:41.352Z,2.67
2019-04-22T12:00:14.915Z,2.75
2019-04-22T12:02:47.169Z,2.80
2019-04-22T12:05:19.628Z,2.85
2019-04-22T12:07:51.037Z,2.80
2019-04-22T12:10:33.263Z,2.62
2019-04-22T12:12:57.805Z,2.70
2019-04-22T12:16:07.597Z,2.83
2019-04-22T12:22:00.708Z,2.98
2019-04-22T12:24:34.244Z,2.92
2019-04-22T12:27:08.593Z,2.72
2019-04-22T12:29:40.729Z,3.00
2019-04-22T12:32:13.603Z,2.67
2019-04-22T12:34:44.599Z,2.87
2019-04-22T12:37:24.844Z,2.98
2019-04-22T12:39:52.647Z,2.70
2019-04-22T12:42:21.808Z,3.12
2019-04-22T12:44:54.105Z,3.15
2019-04-22T12:47:44.152Z,2.80
2019-04-22T12:51:02.977Z,3.15
2019-04-22T12:53:36.272Z,3.00
2019-04-22T12:56:07.335Z,2.98
2019-04-22T12:58:38.357Z,2.77
2019-04-22T13:01:10.956Z,2.60
2019-04-22T13:03:42.671Z,2.60
2019-04-22T13:06:17.690Z,2.70
2019-04-22T13:08:49.864Z,2.45
2019-04-22T13:11:26.959Z,2.98
2019-04-22T13:13:54.831Z,2.62
2019-04-22T13:16:26.963Z,2.65
2019-04-22T13:19:04.451Z,2.70
2019-04-22T13:21:31.135Z,2.87
2019-04-22T13:24:02.736Z,2.92
2019-04-22T13:26:33.907Z,2.90
2019-04-22T13:29:05.253Z,2.90
2019-04-22T13:31:37.058Z,3.20
2019-04-22T13:34:19.969Z,2.75
2019-04-22T13:36:44.905Z,3.00
2019-04-22T13:39:16.706Z,3.10
2019-04-22T13:41:54.620Z,3.10
2019-04-22T13:44:33.618Z,3.25
2019-04-22T13:47:23.935Z,2.62
2019-04-22T13:50:06.072Z,2.50
2019-04-22T13:52:48.292Z,2.40
2019-04-22T13:55:11.899Z,2.30
2019-04-22T13:57:34.418Z,2.70
2019-04-22T13:59:54.140Z,2.52
2019-04-22T14:02:46.619Z,2.40
2019-04-22T14:08:14.575Z,2.30
2019-04-22T14:10:48.466Z,2.22
2019-04-22T14:28:21.982Z,2.42
2019-04-22T14:30:52.646Z,2.20
2019-04-22T14:33:46.559Z,2.15
2019-04-22T14:36:19.582Z,2.30
2019-04-22T14:43:00.539Z,2.33
2019-04-22T14:52:39.529Z,2.60
2019-04-22T14:55:23.167Z,2.83
2019-04-22T14:57:51.059Z,3.05
2019-04-22T15:03:52.414Z,2.72
2019-04-22T15:09:41.969Z,2.67
2019-04-22T15:12:25.666Z,2.90
2019-04-22T15:14:48.275Z,3.02
2019-04-22T15:17:22.748Z,3.22
2019-04-22T15:19:56.086Z,2.83
2019-04-22T15:22:28.422Z,3.20
2019-04-22T15:25:00.646Z,2.72
2019-04-22T15:27:33.073Z,2.98
2019-04-22T15:30:07.633Z,2.60
2019-04-22T15:32:39.141Z,3.20
2019-04-22T15:35:11.375Z,2.90
2019-04-22T15:37:45.587Z,2.70
2019-04-22T15:40:18.417Z,2.95
2019-04-22T15:42:50.732Z,3.00
2019-04-22T15:45:23.729Z,2.72
2019-04-22T15:47:55.913Z,2.37
2019-04-22T15:50:26.921Z,2.40
2019-04-22T15:53:00.765Z,3.10
2019-04-22T15:55:30.637Z,3.17
2019-04-22T15:58:01.897Z,2.95
2019-04-22T16:00:44.495Z,2.70
2019-04-22T16:03:08.514Z,3.00
2019-04-22T16:05:39.570Z,2.95
2019-04-22T16:08:10.946Z,3.30
2019-04-22T16:10:42.146Z,2.92
2019-04-22T16:13:20.147Z,2.95
2019-04-22T16:15:46.747Z,2.42
2019-04-22T16:18:18.264Z,2.52
2019-04-22T16:20:50.307Z,3.20
2019-04-22T16:23:27.814Z,2.72
2019-04-22T16:26:07.288Z,2.75
2019-04-22T16:28:39.689Z,2.77
2019-04-22T16:31:11.307Z,2.83
2019-04-22T16:33:45.649Z,2.92
2019-04-22T16:36:16.513Z,3.00
2019-04-22T16:38:47.072Z,3.08
2019-04-22T16:41:18.818Z,2.77
2019-04-22T16:43:50.710Z,2.37
2019-04-22T16:46:21.429Z,2.65
2019-04-22T16:48:53.707Z,2.45
2019-04-22T16:51:24.508Z,2.95
2019-04-22T16:53:55.794Z,2.50
2019-04-22T16:56:27.186Z,2.92
2019-04-22T16:58:58.897Z,3.08
2019-04-22T17:01:34.766Z,2.55
2019-04-22T17:04:07.062Z,2.47
2019-04-22T17:06:39.476Z,2.58
2019-04-22T17:09:11.038Z,2.65
2019-04-22T17:11:41.703Z,2.42
2019-04-22T17:14:13.392Z,2.90
2019-04-22T17:16:44.405Z,2.98
2019-04-22T17:19:15.636Z,2.67
2019-04-22T17:21:47.840Z,2.40
2019-04-22T17:24:19.518Z,2.50
2019-04-22T17:26:50.613Z,2.95
2019-04-22T17:29:20.993Z,2.72
2019-04-22T17:31:58.290Z,3.35
2019-04-22T17:34:25.450Z,2.70
2019-04-22T17:36:57.289Z,2.72
2019-04-22T17:39:41.145Z,2.40
2019-04-22T17:42:23.814Z,2.75
2019-04-22T17:45:07.722Z,2.47
2019-04-22T17:47:29.052Z,2.45
2019-04-22T17:50:30.444Z,2.47
2019-04-22T17:52:38.884Z,2.08
2019-04-22T17:55:08.804Z,2.35
2019-04-22T17:57:38.391Z,2.75
2019-04-22T18:00:14.538Z,2.90
2019-04-22T18:02:45.716Z,2.60
2019-04-22T18:05:05.493Z,2.40
2019-04-22T18:07:54.814Z,2.35
2019-04-22T18:10:33.049Z,2.30
2019-04-22T18:13:08.832Z,2.37
2019-04-22T18:15:29.683Z,2.43
2019-04-22T18:18:06.384Z,2.30
2019-04-22T18:20:30.544Z,2.97
2019-04-22T18:22:56.973Z,2.30
2019-04-22T18:25:36.411Z,2.37
2019-04-22T18:28:17.098Z,2.30
2019-04-22T18:30:41.283Z,2.23
2019-04-22T18:33:18.994Z,3.00
2019-04-22T18:35:44.468Z,3.07
2019-04-22T18:38:32.977Z,2.67
2019-04-22T18:40:50.283Z,2.70
2019-04-22T18:43:31.343Z,2.07
2019-04-22T18:46:06.544Z,2.23
2019-04-22T18:48:29.601Z,2.10
2019-04-22T18:51:13.335Z,2.23
2019-04-22T18:53:42.297Z,2.10
2019-04-22T18:56:16.374Z,2.47
2019-04-22T18:58:39.092Z,2.40
2019-04-22T19:00:59.650Z,2.40
2019-04-22T19:03:42.731Z,2.27
2019-04-22T19:06:36.873Z,2.67
2019-04-22T19:08:55.634Z,2.30
2019-04-22T19:11:30.166Z,2.50
2019-04-22T19:16:36.563Z,2.00
2019-04-22T19:19:25.886Z,2.23
2019-04-22T19:21:37.766Z,2.40
2019-04-22T19:24:05.969Z,2.20
2019-04-22T19:26:50.034Z,2.20
2019-04-22T19:29:13.709Z,2.40
2019-04-22T19:31:45.479Z,2.50
2019-04-22T19:34:22.239Z,2.47
2019-04-22T19:36:51.787Z,2.07
2019-04-22T19:39:17.320Z,2.20
2019-04-22T19:42:08.186Z,2.20
2019-04-22T19:44:35.403Z,2.10
2019-04-22T19:47:21.351Z,2.27
2019-04-22T19:49:39.508Z,2.30
2019-04-22T19:52:11.327Z,2.20
2019-04-22T19:54:35.753Z,2.20
2019-04-22T19:57:07.197Z,2.40
2019-04-22T19:59:42.552Z,2.00
2019-04-22T20:02:12.874Z,2.57
2019-04-22T20:04:59.721Z,2.07
2019-04-22T20:07:22.779Z,2.73
2019-04-22T20:09:58.748Z,2.17
2019-04-22T20:12:26.058Z,2.50
2019-04-22T20:15:02.293Z,2.67
2019-04-22T20:18:11.422Z,2.60
2019-04-22T20:20:09.911Z,2.70
2019-04-22T20:22:41.791Z,2.27
2019-04-22T20:25:01.819Z,2.10
2019-04-22T20:27:47.349Z,2.03
2019-04-22T20:30:18.728Z,2.60
2019-04-22T20:32:48.656Z,2.33
2019-04-22T20:35:26.500Z,2.50
2019-04-22T20:37:59.227Z,2.53
2019-04-22T20:40:29.807Z,2.60
2019-04-22T20:43:10.514Z,2.30
2019-04-22T20:45:37.283Z,2.27
2019-04-22T20:47:59.090Z,2.20
2019-04-22T20:50:43.537Z,2.23
2019-04-22T20:53:11.569Z,2.20
2019-04-22T20:55:44.973Z,2.57
2019-04-22T20:58:15.262Z,2.60
2019-04-22T21:00:45.285Z,2.30
2019-04-22T21:03:07.319Z,2.27
2019-04-22T21:05:44.480Z,2.30
2019-04-22T21:08:28.246Z,2.67
2019-04-22T21:10:46.667Z,2.37
2019-04-22T21:13:23.084Z,2.60
2019-04-22T21:16:04.089Z,2.50
2019-04-22T21:18:27.551Z,2.53
2019-04-22T21:21:07.071Z,2.23
2019-04-22T21:23:31.339Z,2.30
2019-04-22T21:26:11.564Z,2.80
2019-04-22T21:28:44.394Z,2.20
2019-04-22T21:31:19.371Z,2.50
2019-04-22T21:33:48.986Z,2.53
2019-04-22T21:36:25.025Z,2.60
2019-04-22T21:38:48.088Z,2.63
2019-04-22T21:41:20.463Z,2.70
2019-04-22T21:43:52.628Z,2.33
2019-04-22T21:46:30.906Z,2.80
2019-04-22T21:49:02.900Z,2.77
2019-04-22T21:51:39.416Z,2.30
2019-04-22T21:54:09.549Z,2.30
2019-04-22T21:59:12.633Z,2.57
2019-04-22T22:01:53.991Z,2.47
2019-04-22T22:04:20.495Z,2.63
2019-04-22T22:06:42.462Z,2.53
2019-04-22T22:09:31.766Z,2.57
2019-04-22T22:11:58.111Z,2.70
2019-04-22T22:14:27.718Z,2.70
2019-04-22T22:16:56.237Z,2.70
2019-04-22T22:19:42.375Z,2.57
2019-04-22T22:22:15.234Z,2.80
2019-04-22T22:24:43.623Z,2.87
2019-04-22T22:27:14.308Z,2.73
2019-04-22T22:32:16.814Z,2.40
2019-04-22T22:34:50.534Z,2.80
2019-04-22T22:37:12.114Z,2.90
2019-04-22T22:39:44.895Z,2.73
2019-04-22T22:42:10.917Z,2.80
2019-04-22T22:44:44.905Z,2.50
2019-04-22T22:47:34.247Z,2.63
2019-04-22T22:50:04.516Z,2.70
2019-04-22T22:52:53.178Z,2.70
2019-04-22T22:55:10.737Z,2.83
2019-04-22T22:57:44.275Z,2.83
2019-04-22T23:00:14.993Z,2.80
2019-04-22T23:03:05.016Z,2.83
2019-04-22T23:05:21.785Z,2.40
2019-04-22T23:07:54.902Z,2.93
2019-04-22T23:10:24.761Z,2.63
2019-04-22T23:13:00.482Z,2.80
2019-04-22T23:15:25.707Z,3.17
2019-04-22T23:17:41.332Z,2.57
2019-04-22T23:20:13.567Z,2.87
2019-04-22T23:23:09.348Z,2.80
2019-04-22T23:25:48.148Z,3.10
2019-04-22T23:28:12.574Z,2.77
2019-04-22T23:30:40.080Z,2.60
2019-04-22T23:33:26.447Z,2.60
2019-04-22T23:35:57.572Z,2.57
2019-04-22T23:38:42.495Z,2.40
2019-04-22T23:41:44.440Z,2.50
2019-04-22T23:44:06.985Z,2.80
2019-04-22T23:46:38.229Z,2.50
2019-04-22T23:49:08.782Z,2.60
2019-04-22T23:51:51.564Z,2.53
2019-04-22T23:54:16.470Z,2.60
2019-04-22T23:56:43.550Z,2.33
2019-04-22T23:59:38.265Z,3.10
